Time;durP1;ratioP1;P1;durP2;ratioP2;P2;SDS_P1;SDS_P2;PMS_P1;PMS_P2;Temp;Humidity;BMP_temperature;BMP_pressure;BME280_temperature;BME280_humidity;BME280_pressure;Samples;Min_cycle;Max_cycle;Signal;HPM_P1;HPM_P2
2022/04/17 00:01:31;;;;;;;2.28;2.10;;;;;;;;;;4992281;28;20108;-76
2022/04/17 00:03:57;;;;;;;2.50;2.30;;;;;;;;;;4991789;28;20140;-76
2022/04/17 00:06:22;;;;;;;2.55;2.35;;;;;;;;;;4976073;28;20418;-77
2022/04/17 00:08:49;;;;;;;1.80;1.70;;;;;;;;;;4992213;28;20392;-76
2022/04/17 00:11:15;;;;;;;2.40;2.20;;;;;;;;;;4976204;28;20042;-75
2022/04/17 00:13:41;;;;;;;2.10;2.00;;;;;;;;;;4977282;28;20111;-77
2022/04/17 00:16:07;;;;;;;2.10;2.00;;;;;;;;;;5009966;28;20457;-74
2022/04/17 00:18:33;;;;;;;2.00;1.90;;;;;;;;;;5008547;28;20063;-75
2022/04/17 00:20:59;;;;;;;2.97;2.00;;;;;;;;;;5013023;28;20041;-75
2022/04/17 00:23:25;;;;;;;2.00;1.90;;;;;;;;;;5014953;28;20042;-76
2022/04/17 00:25:51;;;;;;;2.17;1.92;;;;;;;;;;5015149;28;20042;-74
2022/04/17 00:28:17;;;;;;;3.80;2.30;;;;;;;;;;5012167;28;20056;-75
2022/04/17 00:30:42;;;;;;;2.08;1.90;;;;;;;;;;5013549;28;20034;-76
2022/04/17 00:33:08;;;;;;;2.20;2.10;;;;;;;;;;5012341;28;20085;-75
2022/04/17 00:35:34;;;;;;;1.80;1.70;;;;;;;;;;5013459;28;20095;-76
2022/04/17 00:38:02;;;;;;;3.28;2.15;;;;;;;;;;4995881;28;20459;-76
2022/04/17 00:40:29;;;;;;;2.80;1.73;;;;;;;;;;5012073;28;20037;-74
2022/04/17 00:42:55;;;;;;;2.17;2.08;;;;;;;;;;4996453;28;20052;-75
2022/04/17 00:45:21;;;;;;;3.92;2.20;;;;;;;;;;5013727;28;20516;-76
2022/04/17 00:47:47;;;;;;;2.00;1.90;;;;;;;;;;5011882;28;20048;-74
2022/04/17 00:50:13;;;;;;;2.83;2.00;;;;;;;;;;5012188;28;20038;-75
2022/04/17 00:52:39;;;;;;;2.10;1.75;;;;;;;;;;4995711;28;20053;-75
2022/04/17 00:55:05;;;;;;;2.03;1.77;;;;;;;;;;5013296;28;20091;-75
2022/04/17 00:57:31;;;;;;;1.65;1.55;;;;;;;;;;5012001;28;20144;-75
2022/04/17 00:59:57;;;;;;;8.25;2.20;;;;;;;;;;5013450;28;20181;-75
2022/04/17 01:02:23;;;;;;;3.58;2.00;;;;;;;;;;5013607;28;20053;-75
2022/04/17 01:04:49;;;;;;;1.90;1.80;;;;;;;;;;5012147;28;20044;-77
2022/04/17 01:07:15;;;;;;;1.77;1.70;;;;;;;;;;5014362;28;20418;-78
2022/04/17 01:09:41;;;;;;;1.90;1.80;;;;;;;;;;5014473;28;20518;-74
2022/04/17 01:12:09;;;;;;;1.52;1.40;;;;;;;;;;5013421;28;20124;-76
2022/04/17 01:14:36;;;;;;;2.13;1.60;;;;;;;;;;5005543;28;20464;-75
2022/04/17 01:17:02;;;;;;;1.45;1.40;;;;;;;;;;5014019;28;20050;-76
2022/04/17 01:19:32;;;;;;;1.83;1.73;;;;;;;;;;5015310;28;20073;-75
2022/04/17 01:21:57;;;;;;;1.90;1.80;;;;;;;;;;5013625;28;20040;-75
2022/04/17 01:27:08;;;;;;;1.88;1.63;;;;;;;;;;5001219;28;20045;-76
2022/04/17 01:29:35;;;;;;;2.00;1.90;;;;;;;;;;5014687;28;20053;-75
2022/04/17 01:32:03;;;;;;;1.70;1.60;;;;;;;;;;5015127;28;20429;-76
2022/04/17 01:34:30;;;;;;;1.73;1.63;;;;;;;;;;5015674;28;20069;-75
2022/04/17 01:36:55;;;;;;;1.30;1.30;;;;;;;;;;5015639;28;20636;-77
2022/04/17 01:39:21;;;;;;;1.30;1.30;;;;;;;;;;4982017;28;20054;-77
2022/04/17 01:41:48;;;;;;;1.90;1.80;;;;;;;;;;5015116;28;20037;-76
2022/04/17 01:44:13;;;;;;;1.77;1.67;;;;;;;;;;5014499;28;20049;-75
2022/04/17 01:46:39;;;;;;;2.30;2.10;;;;;;;;;;5014762;28;20100;-76
2022/04/17 01:49:05;;;;;;;2.03;1.80;;;;;;;;;;4981168;28;20045;-75
2022/04/17 01:51:38;;;;;;;1.88;1.75;;;;;;;;;;5014502;28;20038;-75
2022/04/17 01:54:10;;;;;;;1.80;1.70;;;;;;;;;;5014482;28;20070;-75
2022/04/17 01:56:36;;;;;;;1.67;1.58;;;;;;;;;;4995898;28;20061;-75
2022/04/17 01:59:03;;;;;;;2.05;1.95;;;;;;;;;;5015546;28;20053;-75
2022/04/17 02:01:29;;;;;;;2.03;1.92;;;;;;;;;;4997483;28;20044;-76
2022/04/17 02:03:54;;;;;;;1.70;1.60;;;;;;;;;;4997642;28;20524;-76
2022/04/17 02:06:20;;;;;;;1.80;1.58;;;;;;;;;;5014804;28;20117;-76
2022/04/17 02:08:46;;;;;;;1.90;1.70;;;;;;;;;;4997932;28;20065;-75
2022/04/17 02:11:12;;;;;;;2.30;1.88;;;;;;;;;;4998632;28;20161;-76
2022/04/17 02:13:38;;;;;;;1.90;1.80;;;;;;;;;;5014850;28;20042;-76
2022/04/17 02:16:05;;;;;;;2.22;2.10;;;;;;;;;;5015498;28;20509;-75
2022/04/17 02:18:31;;;;;;;2.00;1.90;;;;;;;;;;5015080;28;20481;-76
2022/04/17 02:20:57;;;;;;;1.83;1.73;;;;;;;;;;5013179;28;20049;-76
2022/04/17 02:23:23;;;;;;;1.77;1.60;;;;;;;;;;4981507;28;20137;-76
2022/04/17 02:25:49;;;;;;;1.90;1.80;;;;;;;;;;5014040;28;20422;-77
2022/04/17 02:28:14;;;;;;;3.65;1.90;;;;;;;;;;5016164;28;20044;-76
2022/04/17 02:30:40;;;;;;;1.70;1.60;;;;;;;;;;5016142;28;20042;-74
2022/04/17 02:33:06;;;;;;;2.20;2.10;;;;;;;;;;5016761;28;20510;-75
2022/04/17 02:35:32;;;;;;;1.70;1.60;;;;;;;;;;4985705;28;20065;-75
2022/04/17 02:37:58;;;;;;;1.45;1.45;;;;;;;;;;5005805;28;20053;-75
2022/04/17 02:40:24;;;;;;;1.67;1.58;;;;;;;;;;5006738;28;20528;-76
2022/04/17 02:42:50;;;;;;;3.85;2.00;;;;;;;;;;5025129;28;20038;-75
2022/04/17 02:45:17;;;;;;;1.65;1.55;;;;;;;;;;5022670;28;20458;-75
2022/04/17 02:47:42;;;;;;;2.05;1.90;;;;;;;;;;5012867;28;20041;-76
2022/04/17 02:50:12;;;;;;;1.88;1.77;;;;;;;;;;5004696;28;20096;-75
2022/04/17 02:52:38;;;;;;;3.88;1.80;;;;;;;;;;4997998;28;20096;-74
2022/04/17 02:55:04;;;;;;;2.17;1.65;;;;;;;;;;4996845;28;20458;-76
2022/04/17 02:57:32;;;;;;;1.90;1.80;;;;;;;;;;4979645;28;20046;-75
2022/04/17 02:59:58;;;;;;;2.08;1.95;;;;;;;;;;5014127;28;20453;-75
2022/04/17 03:07:53;;;;;;;2.65;2.13;;;;;;;;;;4976326;28;20073;-74
2022/04/17 03:10:19;;;;;;;2.30;1.75;;;;;;;;;;4993029;28;20073;-75
2022/04/17 03:12:44;;;;;;;2.08;1.98;;;;;;;;;;4942484;28;20097;-75
2022/04/17 03:15:10;;;;;;;2.10;2.00;;;;;;;;;;5008778;28;20046;-76
2022/04/17 03:17:36;;;;;;;2.05;1.85;;;;;;;;;;5009415;28;20082;-77
2022/04/17 03:20:03;;;;;;;2.10;1.90;;;;;;;;;;5010713;28;20042;-75
2022/04/17 03:22:29;;;;;;;1.80;1.70;;;;;;;;;;4998852;28;20108;-76
2022/04/17 03:24:55;;;;;;;2.83;2.17;;;;;;;;;;4979827;28;20042;-75
2022/04/17 03:27:21;;;;;;;2.40;2.13;;;;;;;;;;5011927;28;20040;-75
2022/04/17 03:29:47;;;;;;;2.15;2.00;;;;;;;;;;4993182;28;20060;-75
2022/04/17 03:32:13;;;;;;;2.25;2.08;;;;;;;;;;4994534;28;20518;-74
2022/04/17 03:34:39;;;;;;;2.10;2.00;;;;;;;;;;4993847;28;20569;-75
2022/04/17 03:37:05;;;;;;;1.92;1.70;;;;;;;;;;4993303;28;20046;-74
2022/04/17 03:39:32;;;;;;;2.88;1.90;;;;;;;;;;4977347;28;20629;-75
2022/04/17 03:41:58;;;;;;;2.08;1.80;;;;;;;;;;4993181;28;20041;-74
2022/04/17 03:44:26;;;;;;;2.45;1.75;;;;;;;;;;4977683;28;20456;-76
2022/04/17 03:46:52;;;;;;;1.90;1.80;;;;;;;;;;5010187;28;20038;-75
2022/04/17 03:49:18;;;;;;;2.05;1.92;;;;;;;;;;5010481;28;20045;-76
2022/04/17 03:51:43;;;;;;;1.85;1.73;;;;;;;;;;5010172;28;20038;-73
2022/04/17 03:54:10;;;;;;;2.03;1.90;;;;;;;;;;4992564;28;20046;-74
2022/04/17 03:56:36;;;;;;;3.20;2.22;;;;;;;;;;4992558;28;20041;-75
2022/04/17 03:59:02;;;;;;;2.08;1.90;;;;;;;;;;5010355;28;20426;-75
2022/04/17 04:01:28;;;;;;;1.85;1.75;;;;;;;;;;5011650;28;20076;-74
2022/04/17 04:03:54;;;;;;;1.98;1.85;;;;;;;;;;5011672;28;20156;-74
2022/04/17 04:06:23;;;;;;;2.15;1.95;;;;;;;;;;5012164;28;20057;-74
2022/04/17 04:08:49;;;;;;;2.10;1.90;;;;;;;;;;5011583;28;20050;-74
2022/04/17 04:11:18;;;;;;;6.50;1.90;;;;;;;;;;5010974;28;20046;-75
2022/04/17 04:13:43;;;;;;;2.35;2.15;;;;;;;;;;5010744;28;20612;-75
2022/04/17 04:16:09;;;;;;;3.30;2.20;;;;;;;;;;5009541;28;20125;-75
2022/04/17 04:18:36;;;;;;;2.13;1.80;;;;;;;;;;4992691;28;20060;-77
2022/04/17 04:21:02;;;;;;;1.75;1.65;;;;;;;;;;5010301;28;20041;-75
2022/04/17 04:23:31;;;;;;;2.55;2.20;;;;;;;;;;5009347;28;20049;-73
2022/04/17 04:25:56;;;;;;;5.38;2.10;;;;;;;;;;4991441;28;20042;-74
2022/04/17 04:28:36;;;;;;;2.10;1.90;;;;;;;;;;4991964;28;20041;-75
2022/04/17 04:31:02;;;;;;;1.60;1.60;;;;;;;;;;5009653;28;20112;-75
2022/04/17 04:33:31;;;;;;;2.08;1.98;;;;;;;;;;4993736;28;20120;-73
2022/04/17 04:35:59;;;;;;;2.22;2.13;;;;;;;;;;5008951;28;20080;-74
2022/04/17 04:38:26;;;;;;;2.05;1.88;;;;;;;;;;4992425;28;20141;-75
2022/04/17 04:40:52;;;;;;;1.95;1.85;;;;;;;;;;5009766;28;20046;-75
2022/04/17 04:43:18;;;;;;;2.67;2.35;;;;;;;;;;4976108;28;20088;-73
2022/04/17 04:51:13;;;;;;;3.63;2.40;;;;;;;;;;5009694;28;20046;-76
2022/04/17 04:53:39;;;;;;;4.07;2.65;;;;;;;;;;5009650;28;20048;-76
2022/04/17 04:56:05;;;;;;;2.50;2.40;;;;;;;;;;5009593;28;20057;-77
2022/04/17 04:58:31;;;;;;;2.05;1.95;;;;;;;;;;4991732;28;20057;-75
2022/04/17 05:00:57;;;;;;;2.45;2.30;;;;;;;;;;4991227;28;20045;-75
2022/04/17 05:03:23;;;;;;;2.53;2.33;;;;;;;;;;5011593;28;20549;-75
2022/04/17 05:05:49;;;;;;;4.25;2.63;;;;;;;;;;5012575;28;20046;-76
2022/04/17 05:08:15;;;;;;;2.53;2.17;;;;;;;;;;5013378;28;20046;-75
2022/04/17 05:10:41;;;;;;;3.13;2.35;;;;;;;;;;5013201;28;20042;-75
2022/04/17 05:13:07;;;;;;;3.47;2.67;;;;;;;;;;4994948;28;20514;-75
2022/04/17 05:15:32;;;;;;;2.95;2.78;;;;;;;;;;5012540;28;20042;-75
2022/04/17 05:17:58;;;;;;;3.25;2.65;;;;;;;;;;5011822;28;20057;-75
2022/04/17 05:20:26;;;;;;;2.92;2.72;;;;;;;;;;5012552;28;20132;-74
2022/04/17 05:22:56;;;;;;;2.85;2.50;;;;;;;;;;5011308;28;20464;-73
2022/04/17 05:25:22;;;;;;;5.32;2.35;;;;;;;;;;5012565;28;20056;-72
2022/04/17 05:27:49;;;;;;;3.05;2.70;;;;;;;;;;4994992;28;20045;-72
2022/04/17 05:30:15;;;;;;;2.95;2.72;;;;;;;;;;5012567;28;20034;-73
2022/04/17 05:32:41;;;;;;;2.35;2.20;;;;;;;;;;5012810;28;20069;-73
2022/04/17 05:35:07;;;;;;;2.53;2.33;;;;;;;;;;5012590;28;20336;-73
2022/04/17 05:37:33;;;;;;;2.83;2.30;;;;;;;;;;4963517;28;20053;-73
2022/04/17 05:39:59;;;;;;;2.38;2.17;;;;;;;;;;5013817;28;20041;-73
2022/04/17 05:42:25;;;;;;;1.88;1.77;;;;;;;;;;4998365;28;20418;-74
2022/04/17 05:44:51;;;;;;;2.50;2.40;;;;;;;;;;4994632;28;20597;-74
2022/04/17 05:47:17;;;;;;;2.40;2.00;;;;;;;;;;4978027;28;20049;-72
2022/04/17 05:49:43;;;;;;;1.85;1.75;;;;;;;;;;4980232;28;20049;-71
2022/04/17 05:52:08;;;;;;;3.63;2.22;;;;;;;;;;5010049;28;20210;-68
2022/04/17 05:54:34;;;;;;;2.45;2.25;;;;;;;;;;5011385;28;20033;-68
2022/04/17 05:57:00;;;;;;;3.03;2.83;;;;;;;;;;5009825;28;21024;-68
2022/04/17 05:59:26;;;;;;;3.20;2.85;;;;;;;;;;4987530;28;20109;-70
2022/04/17 06:01:52;;;;;;;2.75;2.50;;;;;;;;;;5008005;28;20042;-70
2022/04/17 06:04:19;;;;;;;3.30;2.67;;;;;;;;;;4991979;28;20386;-69
2022/04/17 06:06:45;;;;;;;2.75;2.55;;;;;;;;;;4996892;28;20045;-70
2022/04/17 06:09:11;;;;;;;3.05;2.47;;;;;;;;;;5008149;28;20034;-70
2022/04/17 06:11:36;;;;;;;2.10;1.85;;;;;;;;;;5009215;28;20044;-69
2022/04/17 06:14:02;;;;;;;2.42;2.30;;;;;;;;;;5008037;28;20108;-69
2022/04/17 06:16:28;;;;;;;2.75;2.55;;;;;;;;;;5007648;28;20430;-69
2022/04/17 06:18:54;;;;;;;3.00;2.72;;;;;;;;;;4991107;28;20057;-68
2022/04/17 06:21:20;;;;;;;3.70;2.65;;;;;;;;;;5009516;28;20038;-69
2022/04/17 06:23:46;;;;;;;1.90;1.80;;;;;;;;;;5009256;28;20057;-69
2022/04/17 06:26:12;;;;;;;4.25;2.40;;;;;;;;;;4993517;28;20403;-69
2022/04/17 06:28:37;;;;;;;2.60;2.40;;;;;;;;;;4992318;28;20050;-69
2022/04/17 06:31:04;;;;;;;2.80;2.40;;;;;;;;;;5009331;28;20124;-69
2022/04/17 06:33:30;;;;;;;2.60;2.40;;;;;;;;;;5010309;28;20430;-69
2022/04/17 06:35:56;;;;;;;2.35;1.85;;;;;;;;;;5009306;28;20041;-69
2022/04/17 06:38:25;;;;;;;2.33;2.17;;;;;;;;;;4991884;28;20514;-69
2022/04/17 06:40:52;;;;;;;2.20;1.95;;;;;;;;;;5009468;28;20092;-70
2022/04/17 06:43:17;;;;;;;3.47;2.50;;;;;;;;;;5010539;28;20073;-71
2022/04/17 06:45:44;;;;;;;2.30;2.20;;;;;;;;;;4996034;28;20241;-70
2022/04/17 06:48:21;;;;;;;3.05;2.60;;;;;;;;;;4973466;28;20054;-70
2022/04/17 06:50:47;;;;;;;3.00;2.80;;;;;;;;;;4990793;28;20042;-70
2022/04/17 06:53:13;;;;;;;2.33;2.13;;;;;;;;;;4985303;28;20049;-68
2022/04/17 06:55:39;;;;;;;2.20;2.10;;;;;;;;;;5010535;28;20045;-68
2022/04/17 06:58:05;;;;;;;2.22;2.13;;;;;;;;;;5010141;28;20053;-68
2022/04/17 07:00:31;;;;;;;3.67;1.98;;;;;;;;;;5010406;28;20168;-69
2022/04/17 07:02:57;;;;;;;1.90;1.80;;;;;;;;;;4992946;28;20072;-69
2022/04/17 07:05:23;;;;;;;2.50;2.30;;;;;;;;;;5009569;28;20569;-69
2022/04/17 07:07:56;;;;;;;2.80;1.83;;;;;;;;;;5010181;28;20081;-70
2022/04/17 07:10:21;;;;;;;3.15;2.10;;;;;;;;;;4976245;28;20533;-69
2022/04/17 07:12:47;;;;;;;2.53;2.33;;;;;;;;;;5008930;28;20081;-70
2022/04/17 07:15:13;;;;;;;2.20;2.00;;;;;;;;;;5011619;28;20048;-70
2022/04/17 07:17:39;;;;;;;2.20;2.00;;;;;;;;;;5010007;28;20080;-72
2022/04/17 07:20:06;;;;;;;2.47;2.28;;;;;;;;;;5009710;28;20054;-70
2022/04/17 07:22:38;;;;;;;1.70;1.60;;;;;;;;;;5010133;28;20632;-72
2022/04/17 07:25:05;;;;;;;2.53;1.90;;;;;;;;;;4990879;28;20049;-69
2022/04/17 07:27:36;;;;;;;1.83;1.73;;;;;;;;;;4990325;28;20580;-70
2022/04/17 07:30:12;;;;;;;2.03;1.83;;;;;;;;;;5009130;28;20042;-69
2022/04/17 07:32:39;;;;;;;2.50;2.15;;;;;;;;;;5011122;28;20567;-68
2022/04/17 07:35:06;;;;;;;2.33;1.73;;;;;;;;;;5012439;28;20064;-67
2022/04/17 07:37:34;;;;;;;3.22;1.83;;;;;;;;;;5005115;28;20144;-68
2022/04/17 07:40:01;;;;;;;2.47;1.77;;;;;;;;;;5008782;28;20053;-68
2022/04/17 07:42:28;;;;;;;2.53;1.83;;;;;;;;;;5008428;28;20084;-68
2022/04/17 07:44:54;;;;;;;1.73;1.65;;;;;;;;;;5009195;28;20479;-67
2022/04/17 07:47:20;;;;;;;1.70;1.60;;;;;;;;;;5009633;28;20045;-68
2022/04/17 07:49:46;;;;;;;2.58;2.38;;;;;;;;;;4991517;28;20101;-68
2022/04/17 07:52:11;;;;;;;4.03;2.00;;;;;;;;;;5008917;28;20060;-68
2022/04/17 07:54:39;;;;;;;1.80;1.70;;;;;;;;;;5007102;28;20037;-68
2022/04/17 07:57:05;;;;;;;6.25;2.30;;;;;;;;;;5009113;28;20553;-68
2022/04/17 07:59:31;;;;;;;1.85;1.75;;;;;;;;;;4985936;28;20483;-69
2022/04/17 08:02:11;;;;;;;2.30;2.00;;;;;;;;;;5008323;28;20129;-68
2022/04/17 08:04:38;;;;;;;2.60;1.90;;;;;;;;;;5007775;28;20080;-69
2022/04/17 08:07:04;;;;;;;2.53;2.40;;;;;;;;;;5006778;28;20487;-70
2022/04/17 08:09:30;;;;;;;1.90;1.80;;;;;;;;;;5008844;28;20061;-70
2022/04/17 08:11:56;;;;;;;2.20;2.10;;;;;;;;;;4991077;28;20042;-70
2022/04/17 08:14:22;;;;;;;1.92;1.83;;;;;;;;;;5008750;28;20045;-70
2022/04/17 08:16:48;;;;;;;2.70;2.10;;;;;;;;;;4997287;28;20049;-69
2022/04/17 08:19:14;;;;;;;2.67;1.52;;;;;;;;;;5008169;28;20552;-71
2022/04/17 08:21:43;;;;;;;1.80;1.70;;;;;;;;;;4991091;28;20112;-70
2022/04/17 08:24:09;;;;;;;1.70;1.60;;;;;;;;;;4991334;28;20104;-70
2022/04/17 08:26:35;;;;;;;1.70;1.60;;;;;;;;;;5006929;28;20046;-69
2022/04/17 08:29:01;;;;;;;6.50;1.80;;;;;;;;;;5003094;28;20069;-71
2022/04/17 08:31:27;;;;;;;2.70;1.75;;;;;;;;;;5015130;28;20133;-71
2022/04/17 08:33:53;;;;;;;3.15;1.98;;;;;;;;;;5008791;28;20149;-71
2022/04/17 08:36:19;;;;;;;1.90;1.80;;;;;;;;;;5004812;28;20480;-71
2022/04/17 08:38:44;;;;;;;1.98;1.88;;;;;;;;;;4988962;28;20087;-69
2022/04/17 08:41:10;;;;;;;3.65;2.40;;;;;;;;;;5009630;28;20042;-69
2022/04/17 08:43:36;;;;;;;2.88;2.30;;;;;;;;;;4994446;28;20176;-70
2022/04/17 08:46:03;;;;;;;3.85;2.15;;;;;;;;;;5012327;28;20070;-70
2022/04/17 08:48:29;;;;;;;3.88;1.88;;;;;;;;;;4993908;28;20046;-69
2022/04/17 08:50:55;;;;;;;2.40;2.20;;;;;;;;;;5010212;28;20072;-69
2022/04/17 08:53:21;;;;;;;1.80;1.70;;;;;;;;;;5012503;28;20546;-69
2022/04/17 08:55:47;;;;;;;2.00;1.83;;;;;;;;;;5011268;28;20049;-69
2022/04/17 08:58:13;;;;;;;2.15;1.95;;;;;;;;;;5011270;28;20068;-70
2022/04/17 09:00:40;;;;;;;3.50;2.28;;;;;;;;;;5010990;28;20041;-71
2022/04/17 09:03:09;;;;;;;1.65;1.55;;;;;;;;;;5005375;28;20089;-71
2022/04/17 09:05:35;;;;;;;2.28;1.90;;;;;;;;;;4964465;28;20096;-71
2022/04/17 09:08:11;;;;;;;1.80;1.70;;;;;;;;;;5004565;28;20050;-72
2022/04/17 09:10:37;;;;;;;7.30;2.00;;;;;;;;;;5011905;28;20045;-72
2022/04/17 09:13:03;;;;;;;3.35;2.00;;;;;;;;;;5003163;28;20041;-70
2022/04/17 09:15:29;;;;;;;2.65;1.83;;;;;;;;;;5009956;28;20041;-70
2022/04/17 09:17:55;;;;;;;4.47;1.85;;;;;;;;;;5000613;28;20054;-70
2022/04/17 09:20:22;;;;;;;1.80;1.70;;;;;;;;;;4989721;28;20133;-69
2022/04/17 09:22:48;;;;;;;1.80;1.70;;;;;;;;;;4991034;28;20066;-70
2022/04/17 09:25:14;;;;;;;2.10;2.00;;;;;;;;;;4989582;28;20049;-70
2022/04/17 09:27:42;;;;;;;1.70;1.60;;;;;;;;;;4989770;28;20042;-70
2022/04/17 09:30:26;;;;;;;1.83;1.63;;;;;;;;;;4990671;28;20043;-70
2022/04/17 09:32:52;;;;;;;1.85;1.75;;;;;;;;;;4990428;28;20721;-70
2022/04/17 09:35:21;;;;;;;2.33;1.90;;;;;;;;;;4992159;28;20627;-70
2022/04/17 09:37:46;;;;;;;2.10;1.92;;;;;;;;;;4992250;28;20054;-71
2022/04/17 09:40:12;;;;;;;2.40;2.10;;;;;;;;;;4992271;28;20043;-70
2022/04/17 09:42:38;;;;;;;3.90;2.10;;;;;;;;;;4991210;28;20050;-70
2022/04/17 09:45:06;;;;;;;2.40;1.98;;;;;;;;;;4988826;28;20045;-75
2022/04/17 09:47:32;;;;;;;2.85;1.90;;;;;;;;;;4987889;28;20050;-75
2022/04/17 09:49:59;;;;;;;2.03;1.83;;;;;;;;;;4988270;28;20038;-75
2022/04/17 09:52:29;;;;;;;1.85;1.75;;;;;;;;;;5005850;28;20056;-75
2022/04/17 09:54:55;;;;;;;2.08;1.70;;;;;;;;;;4994009;28;20038;-77
2022/04/17 09:57:34;;;;;;;3.53;1.58;;;;;;;;;;4989732;28;20042;-76
2022/04/17 10:00:07;;;;;;;2.10;2.00;;;;;;;;;;4990702;28;20145;-75
2022/04/17 10:02:33;;;;;;;2.40;2.20;;;;;;;;;;4989923;28;20619;-71
2022/04/17 10:05:02;;;;;;;1.90;1.80;;;;;;;;;;4989492;28;20474;-71
2022/04/17 10:07:28;;;;;;;2.42;2.20;;;;;;;;;;4990142;28;20034;-71
2022/04/17 10:09:54;;;;;;;1.75;1.65;;;;;;;;;;4972112;28;20046;-71
2022/04/17 10:12:20;;;;;;;2.38;2.28;;;;;;;;;;4989296;28;20382;-71
2022/04/17 10:14:49;;;;;;;4.10;3.25;;;;;;;;;;5002822;28;20041;-71
2022/04/17 10:17:20;;;;;;;2.50;2.30;;;;;;;;;;4974556;28;20053;-71
2022/04/17 10:19:50;;;;;;;2.28;1.95;;;;;;;;;;4974780;28;20054;-72
2022/04/17 10:22:20;;;;;;;10.02;7.20;;;;;;;;;;4991841;28;20446;-72
2022/04/17 10:24:54;;;;;;;7.72;5.95;;;;;;;;;;4974590;28;20070;-71
2022/04/17 10:27:24;;;;;;;13.63;3.97;;;;;;;;;;4992089;28;20046;-71
2022/04/17 10:29:52;;;;;;;2.15;1.80;;;;;;;;;;4974461;28;20071;-70
2022/04/17 10:32:31;;;;;;;2.13;1.80;;;;;;;;;;4979127;28;20100;-71
2022/04/17 10:35:00;;;;;;;2.92;2.55;;;;;;;;;;4971671;28;20046;-71
2022/04/17 10:37:34;;;;;;;2.55;2.08;;;;;;;;;;4985735;28;20042;-71
2022/04/17 10:40:01;;;;;;;1.90;1.80;;;;;;;;;;4974010;28;20046;-71
2022/04/17 10:42:36;;;;;;;5.18;2.10;;;;;;;;;;4991823;28;20050;-70
2022/04/17 10:45:05;;;;;;;2.40;1.90;;;;;;;;;;4991310;28;20057;-71
2022/04/17 10:47:30;;;;;;;1.92;1.75;;;;;;;;;;4974483;28;20042;-70
2022/04/17 10:49:56;;;;;;;1.88;1.65;;;;;;;;;;4991331;28;20254;-71
2022/04/17 10:52:31;;;;;;;1.85;1.75;;;;;;;;;;4991576;28;20046;-70
2022/04/17 10:55:10;;;;;;;1.90;1.75;;;;;;;;;;4991082;28;20049;-71
2022/04/17 10:57:43;;;;;;;3.33;1.90;;;;;;;;;;4991376;28;20046;-70
2022/04/17 11:00:28;;;;;;;1.80;1.70;;;;;;;;;;4990756;28;20057;-71
2022/04/17 11:02:54;;;;;;;2.25;2.03;;;;;;;;;;4990403;28;20145;-72
2022/04/17 11:08:22;;;;;;;2.00;1.90;;;;;;;;;;4990972;28;20042;-71
2022/04/17 11:10:53;;;;;;;3.00;2.00;;;;;;;;;;4973203;28;20116;-71
2022/04/17 11:13:19;;;;;;;2.20;1.80;;;;;;;;;;4975472;28;20046;-71
2022/04/17 11:15:48;;;;;;;2.22;2.03;;;;;;;;;;5010441;28;20041;-72
2022/04/17 11:18:14;;;;;;;2.40;2.00;;;;;;;;;;5010354;28;20172;-71
2022/04/17 11:20:40;;;;;;;3.88;2.30;;;;;;;;;;4992595;28;20158;-71
2022/04/17 11:23:08;;;;;;;2.10;1.90;;;;;;;;;;4992351;28;20153;-70
2022/04/17 11:25:46;;;;;;;3.28;2.63;;;;;;;;;;4992757;28;20445;-71
2022/04/17 11:28:32;;;;;;;3.58;2.00;;;;;;;;;;5010696;28;20041;-71
2022/04/17 11:30:57;;;;;;;2.10;1.80;;;;;;;;;;5010108;28;20046;-71
2022/04/17 11:33:23;;;;;;;2.88;1.90;;;;;;;;;;5010413;28;20187;-71
2022/04/17 11:35:49;;;;;;;1.80;1.70;;;;;;;;;;5009763;28;20469;-71
2022/04/17 11:38:15;;;;;;;1.77;1.60;;;;;;;;;;5010283;28;20112;-71
2022/04/17 11:40:44;;;;;;;2.22;1.70;;;;;;;;;;4992661;28;20045;-71
2022/04/17 11:43:11;;;;;;;2.45;2.05;;;;;;;;;;4992747;28;20525;-72
2022/04/17 11:45:37;;;;;;;2.22;1.67;;;;;;;;;;4992653;28;20462;-71
2022/04/17 11:48:03;;;;;;;2.25;2.05;;;;;;;;;;5009693;28;20049;-71
2022/04/17 11:50:29;;;;;;;2.00;1.80;;;;;;;;;;4992212;28;20418;-71
2022/04/17 11:52:56;;;;;;;3.03;1.67;;;;;;;;;;4992322;28;20061;-71
2022/04/17 11:55:25;;;;;;;1.90;1.60;;;;;;;;;;4992228;28;20132;-71
2022/04/17 11:57:51;;;;;;;1.80;1.70;;;;;;;;;;5009625;28;20433;-71
2022/04/17 12:00:17;;;;;;;2.65;1.90;;;;;;;;;;5009023;28;20042;-71
2022/04/17 12:02:43;;;;;;;2.58;1.83;;;;;;;;;;4987567;28;20109;-71
2022/04/17 12:05:10;;;;;;;2.30;1.92;;;;;;;;;;4972730;28;20069;-71
2022/04/17 12:07:36;;;;;;;1.75;1.65;;;;;;;;;;4972989;28;20518;-71
2022/04/17 12:10:08;;;;;;;3.45;1.75;;;;;;;;;;4990184;28;20228;-71
2022/04/17 12:12:34;;;;;;;2.05;1.85;;;;;;;;;;4989932;28;20038;-71
2022/04/17 12:15:07;;;;;;;2.10;1.88;;;;;;;;;;5005507;28;20076;-71
2022/04/17 12:17:38;;;;;;;1.90;1.80;;;;;;;;;;4984467;28;20051;-71
2022/04/17 12:20:08;;;;;;;2.25;2.05;;;;;;;;;;4973440;28;20608;-71
2022/04/17 12:22:35;;;;;;;2.88;1.42;;;;;;;;;;4973155;28;20116;-71
2022/04/17 12:25:02;;;;;;;2.20;1.90;;;;;;;;;;4989944;28;20046;-71
2022/04/17 12:27:28;;;;;;;2.60;1.92;;;;;;;;;;4989981;28;20046;-71
2022/04/17 12:30:04;;;;;;;1.70;1.60;;;;;;;;;;4990190;28;20046;-71
2022/04/17 12:32:39;;;;;;;1.88;1.77;;;;;;;;;;4957283;28;20065;-71
2022/04/17 12:35:08;;;;;;;4.55;1.90;;;;;;;;;;4956971;28;20426;-74
2022/04/17 12:37:35;;;;;;;1.40;1.40;;;;;;;;;;4986024;28;20038;-74
2022/04/17 12:40:08;;;;;;;1.92;1.83;;;;;;;;;;4987233;28;20049;-74
2022/04/17 12:42:35;;;;;;;2.70;1.85;;;;;;;;;;4971589;28;20140;-74
2022/04/17 12:45:02;;;;;;;2.10;1.90;;;;;;;;;;4985181;28;20246;-73
2022/04/17 12:47:36;;;;;;;2.20;2.10;;;;;;;;;;5008809;28;20050;-73
2022/04/17 12:50:04;;;;;;;3.25;2.10;;;;;;;;;;4991663;28;20418;-73
2022/04/17 12:52:30;;;;;;;1.45;1.35;;;;;;;;;;4975097;28;20041;-73
2022/04/17 12:54:59;;;;;;;5.25;1.73;;;;;;;;;;4991918;28;20514;-73
2022/04/17 12:57:25;;;;;;;1.63;1.52;;;;;;;;;;4992782;28;20042;-74
2022/04/17 12:59:51;;;;;;;2.50;2.30;;;;;;;;;;4972518;28;20129;-74
2022/04/17 13:02:26;;;;;;;3.60;2.40;;;;;;;;;;4989465;28;20059;-74
2022/04/17 13:04:57;;;;;;;2.10;2.00;;;;;;;;;;4972035;28;20112;-74
2022/04/17 13:07:23;;;;;;;2.25;2.00;;;;;;;;;;4956192;28;20065;-74
2022/04/17 13:09:49;;;;;;;3.65;1.90;;;;;;;;;;4972560;28;20078;-76
2022/04/17 13:12:34;;;;;;;2.22;1.92;;;;;;;;;;4989280;28;20081;-74
2022/04/17 13:15:01;;;;;;;2.00;1.80;;;;;;;;;;4989469;28;20121;-75
2022/04/17 13:17:26;;;;;;;1.65;1.50;;;;;;;;;;4971451;28;20050;-75
2022/04/17 13:19:53;;;;;;;2.20;1.98;;;;;;;;;;4972473;28;20046;-75
2022/04/17 13:22:18;;;;;;;2.10;2.00;;;;;;;;;;4955897;28;20058;-76
2022/04/17 13:24:45;;;;;;;4.18;2.35;;;;;;;;;;4990220;28;20042;-75
2022/04/17 13:27:11;;;;;;;3.28;2.00;;;;;;;;;;4974318;28;20046;-76
2022/04/17 13:29:37;;;;;;;2.38;2.20;;;;;;;;;;4976267;28;20140;-75
2022/04/17 13:32:04;;;;;;;2.30;2.17;;;;;;;;;;4963333;28;20176;-75
2022/04/17 13:34:33;;;;;;;2.10;1.90;;;;;;;;;;4995563;28;20502;-76
2022/04/17 13:39:43;;;;;;;3.92;1.90;;;;;;;;;;4995021;28;20123;-75
2022/04/17 13:42:09;;;;;;;3.45;2.88;;;;;;;;;;4994294;28;20038;-75
2022/04/17 13:44:38;;;;;;;5.63;3.25;;;;;;;;;;4994987;28;20768;-74
2022/04/17 13:47:05;;;;;;;5.50;3.47;;;;;;;;;;5012553;28;20038;-74
2022/04/17 13:49:31;;;;;;;2.35;2.20;;;;;;;;;;5010213;28;20072;-74
2022/04/17 13:51:56;;;;;;;2.50;2.30;;;;;;;;;;4973607;28;20071;-74
2022/04/17 13:54:22;;;;;;;3.10;2.80;;;;;;;;;;4973184;28;20200;-74
2022/04/17 13:56:48;;;;;;;6.57;5.30;;;;;;;;;;4973720;28;20034;-76
2022/04/17 13:59:14;;;;;;;12.13;10.02;;;;;;;;;;4942350;28;20058;-75
2022/04/17 14:01:40;;;;;;;5.00;3.95;;;;;;;;;;4980800;28;20041;-75
2022/04/17 14:04:06;;;;;;;2.22;1.98;;;;;;;;;;5000940;28;20046;-74
2022/04/17 14:06:31;;;;;;;10.20;6.93;;;;;;;;;;4985289;28;20257;-75
2022/04/17 14:08:57;;;;;;;3.88;3.58;;;;;;;;;;4981743;28;20155;-74
2022/04/17 14:11:24;;;;;;;3.03;2.20;;;;;;;;;;4987755;28;20467;-75
2022/04/17 14:13:50;;;;;;;2.97;2.75;;;;;;;;;;4984686;28;20038;-75
2022/04/17 14:16:16;;;;;;;4.30;3.90;;;;;;;;;;5009221;28;20502;-74
2022/04/17 14:18:42;;;;;;;2.50;2.30;;;;;;;;;;4957901;28;20050;-74
2022/04/17 14:21:08;;;;;;;2.47;2.35;;;;;;;;;;4960875;28;20040;-76
2022/04/17 14:23:34;;;;;;;16.42;13.70;;;;;;;;;;5007395;28;20429;-76
2022/04/17 14:26:01;;;;;;;2.55;2.35;;;;;;;;;;5000614;28;20105;-75
2022/04/17 14:28:27;;;;;;;7.20;4.78;;;;;;;;;;5001666;28;20045;-75
2022/04/17 14:30:53;;;;;;;3.63;2.63;;;;;;;;;;4969516;28;20100;-75
2022/04/17 14:33:19;;;;;;;4.07;3.35;;;;;;;;;;4985013;28;20046;-77
2022/04/17 14:35:44;;;;;;;2.20;2.00;;;;;;;;;;4982303;28;20097;-75
2022/04/17 14:38:10;;;;;;;2.08;1.98;;;;;;;;;;4990966;28;20065;-70
2022/04/17 14:40:36;;;;;;;18.67;11.55;;;;;;;;;;4990601;28;20499;-71
2022/04/17 14:43:02;;;;;;;41.70;24.23;;;;;;;;;;4986287;28;20050;-70
2022/04/17 14:45:28;;;;;;;2.42;2.22;;;;;;;;;;4993134;28;20521;-70
2022/04/17 14:47:54;;;;;;;2.53;2.42;;;;;;;;;;4995231;28;20534;-70
2022/04/17 14:50:20;;;;;;;2.35;2.00;;;;;;;;;;4989633;28;20101;-71
2022/04/17 14:52:47;;;;;;;7.60;6.78;;;;;;;;;;4990766;28;20050;-70
2022/04/17 14:55:13;;;;;;;3.53;1.98;;;;;;;;;;5003759;28;20054;-70
2022/04/17 14:57:39;;;;;;;6.13;4.70;;;;;;;;;;5009989;28;20548;-70
2022/04/17 15:00:06;;;;;;;2.20;1.95;;;;;;;;;;4995655;28;20076;-70
2022/04/17 15:02:32;;;;;;;2.67;2.47;;;;;;;;;;4973326;28;20054;-72